Santiago Borja

Olheiro-Chefe - Deportivo Pasto
9 Dez 2027
Quinta-feira
Processo

Personalidade

Adaptabilidade (11) Ambição (3) Controvérsia (20) Lealdade (5) Pressão (18) Profissionalismo (1) Espírito Esportivo (6) Temperamento (19)

Perfil

Estilo de Treinamento Democrático
Licença Nacional B
Determinação 11
Gestão de Pessoas 4
Motivação 4
Disciplina 6
Satisfação no Trabalho
100%
Fadiga
0%
Função Olheiro-Chefe
Salário 22.7K p/s
Contrato 14.03.2028

Desempenho

Comportamento Bom
Eficácia do Treinamento
36%
Desenvolvimento do Jogador
35%
Prevenção de Lesões
25%
Implementação Tática
60%

Eventos Recentes

Participou de uma reunião de recrutamento agora
Recomendou um alvo de transferência agora
Recomendou um alvo de transferência agora
Recomendou um alvo de transferência agora
Recomendou um alvo de transferência 7d atrás
Apresentou um dossiê à direção 7d atrás
Apresentou um dossiê à direção 7d atrás
Apresentou um dossiê à direção 7d atrás

Monitorando agora

114
Jogador Clube Status Habilidade Confiança Observado Última observação Último voto
Marlon Carabali Barranquilla Ativo 94 / 104 72% 1 02.12.2027 Aprovar
Joel Canchimbo Barranquilla Negociando 110 / 112 72% 1 01.12.2027 Aprovar
Brandon Caicedo Jaguares Ativo 109 / 109 30% 1 / 1m 21.07.2027 -
Alexander Carabalí Patriotas Negociando 90 / 85 72% 1 05.07.2027 Aprovar
Yeferson Moreno Barranquilla Ativo 114 / 112 72% 1 28.06.2027 Aprovar
Jerónimo Barrera Fortaleza CEIF Ativo 97 / 93 72% 1 14.06.2027 Aprovar
Dion Beljo Standard Liege Negociando 131 / 132 66% 1 01.06.2027 Aprovar
Diego Martínez Jaguares Ativo 121 / 121 30% 1 / 1m 05.05.2027 -
Tyreece Campbell Charlton Athletic Ativo 122 / 106 40% 1 28.12.2026 -
Lukáš Červ Viktoria Plzen Ativo 133 / 125 40% 1 28.12.2026 -
Víctor Ríos Atlas Ativo 107 / 122 40% 1 28.12.2026 -
Jacques Ekomié Wrexham Ativo 127 / 142 40% 1 30.11.2026 -
Vivaldo Semedo Watford Ativo 114 / 109 40% 3 29.11.2026 -
Alagie Wally Veres Ativo 84 / 102 40% 1 29.11.2026 -
Juan Turletti Gimnasia y Tiro Ativo 90 / 95 40% 3 28.11.2026 -
Sidiki Chérif Coventry City Ativo 122 / 122 40% 1 28.11.2026 -
Maximo Ingravidi Colón Ativo 103 / 116 40% 2 27.11.2026 -
Bogdan Petrović TSC Ativo 110 / 101 40% 1 27.11.2026 -
Jean Galindo Imotski Ativo 71 / 71 40% 2 26.11.2026 -
Joaquín Gho Argentinos Juniors Ativo 121 / 124 40% 2 25.11.2026 -
Alexander Díaz Deportivo Riestra Ativo 116 / 123 40% 2 25.11.2026 -
Suleiman Camara Slovan Bratislava Ativo 118 / 133 40% 1 25.11.2026 -
Jerónimo Russo Newell's Old Boys Ativo 97 / 99 40% 2 23.11.2026 -
Leo Castledine Middlesbrough Ativo 137 / 127 40% 3 22.11.2026 -
Aarón Molinas Defensa y Justicia Ativo 126 / 133 40% 1 22.11.2026 -
Tomás Sives Hobro Ativo 108 / 96 40% 1 22.11.2026 -
Renzo Machado Liverpool Montevideo Ativo 111 / 117 40% 3 21.11.2026 -
Jonás Luna Santa Clara Ativo 110 / 128 40% 3 21.11.2026 -
Alan Lescano Argentinos Juniors Ativo 129 / 136 40% 1 20.11.2026 -
Santiago González Tigre Ativo 125 / 132 40% 1 20.11.2026 -
Dom Ballard Leyton Orient Ativo 111 / 110 40% 2 17.11.2026 -
Pedro Ramírez Deportivo Riestra Ativo 113 / 113 40% 1 16.11.2026 -
Misael Sosa Godoy Cruz Ativo 108 / 107 40% 1 16.11.2026 -
Tomás O'Connor Gimnasia y Esgrima Ativo 121 / 124 40% 2 15.11.2026 -
Leandro Córdoba Racing Ativo 88 / 96 40% 1 13.11.2026 -
Brandon Verón San Lorenzo Ativo 79 / 91 40% 1 13.11.2026 -
Dilan Godoy Vélez Ativo 102 / 113 40% 2 12.11.2026 -
Kwame Poku Queens Park Rangers Ativo 112 / 108 40% 1 12.11.2026 -
Bayron Duarte Queretaro Ativo 110 / 127 40% 1 12.11.2026 -
David Kalokoh Ajax Ativo 122 / 130 40% 1 11.11.2026 -
Luciano Inverso Rentistas Ativo 113 / 108 40% 2 09.11.2026 -
Sebastián Santos Leon Ativo 110 / 113 40% 1 09.11.2026 -
Iker Benito Queretaro Ativo 117 / 117 40% 1 09.11.2026 -
Agustín Juárez Huddersfield Town Ativo 94 / 103 40% 1 09.11.2026 -
Alan Coria Defensa y Justicia Ativo 101 / 102 40% 1 04.11.2026 -
Youssoufa Moukoko FC Copenhagen Ativo 116 / 117 40% 2 31.10.2026 -
Nicolás Baigorria San Telmo Ativo 84 / 94 40% 1 30.10.2026 -
Yastin Cuevas Colo-Colo Ativo 100 / 95 40% 3 29.10.2026 -
Enrique Almeida Cerro Largo Ativo 94 / 105 40% 2 28.10.2026 -
Taha Ayari AIK Ativo 115 / 127 40% 1 28.10.2026 -
Agustín Fernández NK Zavrc Ativo 83 / 81 40% 3 27.10.2026 -
Rocco Vata Watford Ativo 117 / 131 40% 2 27.10.2026 -
Juan Francisco Rossel Universidad Catolica Ativo 98 / 102 40% 2 25.10.2026 -
Archie Goodwin Charlotte Football Club Ativo 110 / 121 40% 1 22.10.2026 -
Juan Rocca Gimnasia y Tiro Ativo 112 / 99 40% 1 20.10.2026 -
Stefano Moreyra Independiente Rivadavia Ativo 123 / 127 40% 1 20.10.2026 -
Nicolás Castro Toluca Ativo 132 / 140 40% 1 19.10.2026 -
Martín Campos Ferro Carril Oeste Ativo 111 / 123 40% 1 19.10.2026 -
Nikita Iosifov Viktoria Plzen Ativo 102 / 125 40% 1 19.10.2026 -
Leonel Flores Boca Juniors Ativo 92 / 101 40% 2 15.10.2026 -
Juan David Delgado Chernihiv Ativo 69 / 90 40% 1 15.10.2026 -
Lautaro Gutiérrez Belgrano Ativo 106 / 103 40% 2 14.10.2026 -
Dylan Cabral Arsenal Ativo 101 / 97 40% 2 13.10.2026 -
Brandon Márquez Sarmiento Ativo 102 / 96 40% 1 11.10.2026 -
Nikolay Zlatev Cherno More Ativo 97 / 101 40% 1 11.10.2026 -
Román Fernández Atlético Tucumán Ativo 98 / 107 40% 1 11.10.2026 -
Thiago Ponce Rosario Central Ativo 96 / 113 40% 2 09.10.2026 -
Amaury Morales Pumas UNAM Ativo 100 / 116 40% 1 09.10.2026 -
Duk Atlas Ativo 114 / 129 40% 1 07.10.2026 -
Dilan Gerez River Plate Ativo 94 / 91 40% 2 04.10.2026 -
César Miño Olimpia Ativo 99 / 98 40% 1 30.09.2026 -
Ezekiel Kwame Alladoh Philadelphia Union Ativo 100 / 112 40% 3 29.09.2026 -
Nahuel Maldonado Huracán Ativo 95 / 89 40% 1 29.09.2026 -
Felipe Serrés Wanderers Ativo 98 / 96 40% 1 25.09.2026 -
Thiago Yfran Temperley Ativo 88 / 103 40% 2 24.09.2026 -
Nicolás Sosa La Luz Ativo 89 / 96 40% 1 24.09.2026 -
Brandon Álvarez Penarol Ativo 78 / 99 40% 1 24.09.2026 -
Salvador Martínez Ferro Carril Oeste Ativo 86 / 95 40% 2 22.09.2026 -
Bruno Morales Cerro Ativo 87 / 96 40% 2 22.09.2026 -
Gael Arturo Álvarez Pachuca Ativo 79 / 84 40% 1 17.09.2026 -
Jonathan Ledesma Platense Ativo 93 / 87 40% 2 16.09.2026 -
Oscar Cáceres Sportivo Luqueno Ativo 87 / 90 40% 1 16.09.2026 -
Alan Cisnero Shukura Ativo 104 / 87 40% 2 14.09.2026 -
Valentino Chiarotti Unión de Santa Fe Ativo 74 / 94 40% 1 14.09.2026 -
Lautaro Cipollone Defensores Unidos Ativo 87 / 80 40% 2 10.09.2026 -
Bruno Hernández Cerro Largo Ativo 98 / 108 40% 1 10.09.2026 -
Ramiro Pral Huracán Ativo 77 / 94 40% 2 09.09.2026 -
Francisco Robinson San Martín Ativo 89 / 99 40% 2 08.09.2026 -
Martín Astudillo Racing Ativo 74 / 99 40% 1 07.09.2026 -
Kristian Fletcher FC Cincinnati Ativo 108 / 116 40% 1 07.09.2026 -
Enzo Avaro Odd Ativo 108 / 121 40% 1 07.09.2026 -
Zahid Muñoz Morelia Ativo 91 / 98 40% 1 07.09.2026 -
Jesús Duarte Deportivo Tachira Ativo 73 / 88 40% 1 05.09.2026 -
Alejo Ross Racing Ativo 76 / 89 40% 1 30.08.2026 -
Alexei Dominguez Pachuca Ativo 116 / 107 40% 2 29.08.2026 -
Tomás Salteño Rosario Central Ativo 85 / 87 40% 1 26.08.2026 -
Thiago Sosa Huracán Ativo 85 / 95 40% 1 25.08.2026 -
Alejandro Garay Independiente Ativo 84 / 97 40% 1 25.08.2026 -
Franco Pastrana Defensa y Justicia Ativo 83 / 103 40% 1 23.08.2026 -
Lucas Villagra Barracas Central Ativo 74 / 78 40% 1 22.08.2026 -
Tomás Romero Unión de Santa Fe Ativo 94 / 100 40% 1 21.08.2026 -
Thiago Perugini San Lorenzo Ativo 95 / 105 40% 1 15.08.2026 -
Jonás Oberman Defensa y Justicia Ativo 75 / 90 40% 1 14.08.2026 -
Tobías Ganduglia Independiente Rivadavia Ativo 98 / 106 40% 1 12.08.2026 -
Matías Medina Sportivo Luqueno Ativo 90 / 99 40% 1 10.08.2026 -
Tobías Quinteros Almirante Brown Ativo 83 / 92 40% 1 08.08.2026 -
Joaquín Toranzo Sarmiento Ativo 78 / 92 40% 1 08.08.2026 -
Matías Dufour Sportivo Trinidense Ativo 105 / 113 40% 1 04.08.2026 -
Jorge Hernández Tijuana Ativo 110 / 121 40% 1 03.08.2026 -
Fernando Tapia Club America Ativo 124 / 128 40% 1 03.08.2026 -
Damián London Argentinos Juniors Ativo 78 / 82 40% 1 03.08.2026 -
Emiliano Álvarez Progreso Ativo 116 / 127 40% 1 01.08.2026 -
Pablo Monroy Pumas UNAM Ativo 125 / 101 40% 1 01.08.2026 -
Omar Campos Cruz Azul Ativo 110 / 138 40% 1 01.08.2026 -